Portada
METAR-TAF:

METAR-TAF

Aeroports :

Aeroport Internacional Amata Kabua

Majuro, Illes Marshall

latitud: 07-04N, longitud: 171-17E, altitud: 2 m

Observació

L'informe es va fer fa 3 hores i 6 minuts, a les 10:57 UTC
Vent 16 kt del Est/Nord-Est
Temperatura 29°C
Humitat 79%
Pressió 1010 hPa
Visibilitat: 24.1 km
Escasses núvols a una alçada de 1500 ft
Núvols disperses a una alçada de 5000 ft
Cel ennuvolat a una alçada de 30000 ft

METAR: PKMJ 091057Z 06016KT 15SM FEW015 SCT050 BKN300 29/25 A2983 RMK LAST

Hora: 02:03 (14:03 UTC)

Pronòstic

L'informe es va fer fa 2 hores i 33 minuts, a les 11:30 UTC
Pronòstic vàlid del 09 a les 12 UTC al 10 a les 12 UTC
Vent 15 kt del Est/Nord-Est
Visibilitat: 10 km
Escasses núvols a una alçada de 1500 ft
Núvols disperses a una alçada de 5000 ft

TAF: PKMJ 091130Z 0912/1012 06015KT P6SM FEW015 SCT050

Observacions i pronòstics meteorològics de més de 4000 aeroports (METAR i TAF).

Les estacions disponibles són els punts grocs i vermells al mapa.

Posi el ratolí al punt desitjat per veure el nom de l'estació.

Feu clic per veure les observacions i els pronòstics meteorològics.

Per canviar el mapa: feu clic els botons verds amb una creu de color negre per apropar; al botó verd amb un guió per allunyar la imatge; o en les fletxes verdes per a mapes adjacents.


METAR-TAF: